Time;durP1;ratioP1;P1;durP2;ratioP2;P2;SDS_P1;SDS_P2;PMS_P1;PMS_P2;Temp;Humidity;BMP_temperature;BMP_pressure;BME280_temperature;BME280_humidity;BME280_pressure;Samples;Min_cycle;Max_cycle;Signal;HPM_P1;HPM_P2
2023/11/24 00:00:33;;;;;;;7.15;4.25;;;;;;;;;;6272083;22;20091;-93
2023/11/24 00:03:02;;;;;;;7.35;4.30;;;;;;;;;;6272024;22;20290;-93
2023/11/24 00:05:32;;;;;;;6.65;4.47;;;;;;;;;;6248335;22;20000;-93
2023/11/24 00:08:08;;;;;;;7.80;4.78;;;;;;;;;;6272850;22;20008;-93
2023/11/24 00:10:43;;;;;;;7.38;4.50;;;;;;;;;;6272484;22;20004;-93
2023/11/24 00:13:17;;;;;;;8.90;5.13;;;;;;;;;;6272486;22;20509;-93
2023/11/24 00:15:48;;;;;;;7.30;4.55;;;;;;;;;;6271356;22;20087;-94
2023/11/24 00:18:18;;;;;;;8.60;4.85;;;;;;;;;;6247359;23;20012;-94
2023/11/24 00:23:50;;;;;;;8.50;4.60;;;;;;;;;;6249626;23;20015;-94
2023/11/24 00:29:07;;;;;;;13.02;5.40;;;;;;;;;;6293980;22;20385;-93
2023/11/24 00:31:39;;;;;;;7.03;4.65;;;;;;;;;;6263434;22;20440;-94
2023/11/24 00:34:09;;;;;;;6.77;4.60;;;;;;;;;;6252685;22;20444;-94
2023/11/24 00:36:41;;;;;;;7.38;4.93;;;;;;;;;;6251437;22;20006;-94
2023/11/24 00:45:18;;;;;;;7.38;4.30;;;;;;;;;;6215393;23;20054;-93
2023/11/24 00:47:52;;;;;;;8.88;4.68;;;;;;;;;;6235649;23;20001;-95
2023/11/24 00:50:28;;;;;;;6.90;4.15;;;;;;;;;;6216171;23;20373;-94
2023/11/24 00:52:54;;;;;;;7.70;4.50;;;;;;;;;;6215307;23;20016;-96
2023/11/24 00:58:51;;;;;;;8.35;4.80;;;;;;;;;;6155386;23;20064;-94
2023/11/24 01:01:44;;;;;;;6.27;3.90;;;;;;;;;;6164317;23;20057;-94
2023/11/24 01:04:16;;;;;;;6.55;3.97;;;;;;;;;;6189234;22;20286;-95
2023/11/24 01:06:49;;;;;;;6.47;3.50;;;;;;;;;;6276246;22;20050;-94
2023/11/24 01:09:29;;;;;;;7.47;4.20;;;;;;;;;;6271967;22;20421;-95
2023/11/24 01:11:58;;;;;;;5.75;4.25;;;;;;;;;;6290317;22;20015;-91
2023/11/24 01:14:34;;;;;;;7.03;4.45;;;;;;;;;;6278110;22;20020;-96
2023/11/24 01:17:03;;;;;;;5.55;4.18;;;;;;;;;;6272233;22;20000;-95
2023/11/24 01:22:24;;;;;;;6.18;3.80;;;;;;;;;;6156144;23;20001;-94
2023/11/24 01:24:51;;;;;;;6.20;3.85;;;;;;;;;;6136908;23;20081;-95
2023/11/24 01:27:17;;;;;;;6.75;4.10;;;;;;;;;;6134584;23;20025;-95
2023/11/24 01:29:44;;;;;;;6.00;4.05;;;;;;;;;;6126386;23;20010;-94
2023/11/24 01:32:15;;;;;;;6.25;3.80;;;;;;;;;;6202353;23;20015;-94
2023/11/24 01:35:11;;;;;;;6.80;3.67;;;;;;;;;;6253085;23;20046;-95
2023/11/24 01:37:43;;;;;;;6.47;3.38;;;;;;;;;;6247549;23;20004;-93
2023/11/24 01:40:18;;;;;;;5.65;3.50;;;;;;;;;;6252567;23;19995;-95
2023/11/24 01:46:28;;;;;;;6.00;3.47;;;;;;;;;;6195191;23;20125;-94
2023/11/24 01:48:57;;;;;;;5.97;3.45;;;;;;;;;;6160401;23;20005;-94
2023/11/24 01:51:39;;;;;;;6.28;3.40;;;;;;;;;;6160420;23;20163;-95
2023/11/24 01:54:08;;;;;;;5.07;3.58;;;;;;;;;;6160185;23;20013;-94
2023/11/24 01:56:39;;;;;;;4.65;3.35;;;;;;;;;;6160033;23;20001;-95
2023/11/24 01:59:13;;;;;;;5.43;3.60;;;;;;;;;;6184738;23;20004;-95
2023/11/24 02:01:43;;;;;;;;;;;;;;;;;;6190301;23;20007;-96
2023/11/24 02:04:21;;;;;;;4.38;2.60;;;;;;;;;;6189633;23;19919;-96
2023/11/24 02:06:57;;;;;;;5.00;3.30;;;;;;;;;;6190377;23;20012;-95
2023/11/24 02:09:34;;;;;;;;;;;;;;;;;;;;;
2023/11/24 02:14:39;;;;;;;3.92;2.90;;;;;;;;;;6236927;23;20025;-95
2023/11/24 02:17:08;;;;;;;3.60;2.40;;;;;;;;;;6197112;23;20004;-94
2023/11/24 02:20:05;;;;;;;4.93;2.97;;;;;;;;;;6199133;23;20020;-93
2023/11/24 02:22:44;;;;;;;6.13;2.70;;;;;;;;;;6205267;23;20000;-94
2023/11/24 02:25:11;;;;;;;3.75;2.83;;;;;;;;;;6193388;23;20032;-95
2023/11/24 02:27:37;;;;;;;4.45;2.80;;;;;;;;;;6193276;23;20068;-94
2023/11/24 02:33:12;;;;;;;5.35;2.90;;;;;;;;;;6156918;23;20068;-94
2023/11/24 02:35:42;;;;;;;4.78;2.88;;;;;;;;;;6194083;23;19989;-95
2023/11/24 02:38:14;;;;;;;6.30;2.80;;;;;;;;;;6177676;23;20006;-94
2023/11/24 02:40:56;;;;;;;;;;;;;;;;;;;;;
2023/11/24 02:43:31;;;;;;;4.45;3.05;;;;;;;;;;6157105;23;20142;-95
2023/11/24 02:46:20;;;;;;;4.70;2.80;;;;;;;;;;6181679;23;20005;-93
2023/11/24 02:48:50;;;;;;;4.70;3.00;;;;;;;;;;6156339;23;20016;-95
2023/11/24 02:51:26;;;;;;;4.78;3.08;;;;;;;;;;6182538;23;20002;-93
2023/11/24 02:53:52;;;;;;;4.38;3.08;;;;;;;;;;6201272;23;20044;-94
2023/11/24 02:56:24;;;;;;;4.85;2.80;;;;;;;;;;6182743;23;20086;-96
2023/11/24 02:58:59;;;;;;;4.47;3.15;;;;;;;;;;6181634;23;20049;-94
2023/11/24 03:01:34;;;;;;;6.55;3.00;;;;;;;;;;6181949;23;20461;-94
2023/11/24 03:04:10;;;;;;;4.07;2.92;;;;;;;;;;6216852;23;20079;-94
2023/11/24 03:06:48;;;;;;;4.30;2.50;;;;;;;;;;6191832;23;20008;-95
2023/11/24 03:09:22;;;;;;;4.57;2.97;;;;;;;;;;6192255;23;20004;-96
2023/11/24 03:11:48;;;;;;;;;;;;;;;;;;6186589;23;20088;-95
2023/11/24 03:14:20;;;;;;;3.95;2.60;;;;;;;;;;6159147;23;19944;-95
2023/11/24 03:17:04;;;;;;;4.22;2.60;;;;;;;;;;6189969;23;20009;-95
2023/11/24 03:19:39;;;;;;;6.20;2.40;;;;;;;;;;6169126;23;20033;-95
2023/11/24 03:22:08;;;;;;;4.90;2.65;;;;;;;;;;6127072;23;20024;-95
2023/11/24 03:25:00;;;;;;;5.45;2.50;;;;;;;;;;6180502;23;20037;-95
2023/11/24 03:27:33;;;;;;;4.45;2.40;;;;;;;;;;6181287;23;20001;-95
2023/11/24 03:29:59;;;;;;;4.35;2.58;;;;;;;;;;6194151;23;20084;-94
2023/11/24 03:32:31;;;;;;;4.18;2.63;;;;;;;;;;6182776;23;20037;-95
2023/11/24 03:35:03;;;;;;;4.47;2.67;;;;;;;;;;6131437;23;20463;-95
2023/11/24 03:37:29;;;;;;;4.22;3.05;;;;;;;;;;6182079;23;20073;-95
2023/11/24 03:39:58;;;;;;;3.88;2.78;;;;;;;;;;6181452;23;20045;-95
2023/11/24 03:42:30;;;;;;;3.55;2.40;;;;;;;;;;6192100;23;20037;-93
2023/11/24 03:45:02;;;;;;;3.13;2.15;;;;;;;;;;6161539;23;20005;-95
2023/11/24 03:47:55;;;;;;;3.65;2.20;;;;;;;;;;6163397;23;20489;-95
2023/11/24 03:50:24;;;;;;;3.38;2.03;;;;;;;;;;6162183;23;20005;-94
2023/11/24 03:56:06;;;;;;;6.57;2.30;;;;;;;;;;6154681;23;20444;-95
2023/11/24 03:58:52;;;;;;;5.47;2.67;;;;;;;;;;6173486;23;20001;-94
2023/11/24 04:01:28;;;;;;;6.93;2.83;;;;;;;;;;6178982;23;20004;-95
2023/11/24 04:04:00;;;;;;;4.70;2.75;;;;;;;;;;6175539;23;20005;-95
2023/11/24 04:06:26;;;;;;;4.68;2.90;;;;;;;;;;6162279;23;20429;-95
2023/11/24 04:08:55;;;;;;;5.10;2.50;;;;;;;;;;6162227;23;20005;-95
2023/11/24 04:11:30;;;;;;;4.22;2.70;;;;;;;;;;6167625;23;20028;-95
2023/11/24 04:14:05;;;;;;;4.30;2.72;;;;;;;;;;6214096;22;20072;-92
2023/11/24 04:16:45;;;;;;;4.13;2.72;;;;;;;;;;6258079;22;20087;-94
2023/11/24 04:19:17;;;;;;;8.45;4.93;;;;;;;;;;6251461;23;20105;-95
2023/11/24 04:21:46;;;;;;;4.05;2.30;;;;;;;;;;6247419;23;20004;-94
2023/11/24 04:24:19;;;;;;;3.97;2.22;;;;;;;;;;6261053;23;20076;-93
2023/11/24 04:26:45;;;;;;;6.18;3.30;;;;;;;;;;6251807;23;20026;-95
2023/11/24 04:29:21;;;;;;;3.88;2.28;;;;;;;;;;6248160;23;20032;-95
2023/11/24 04:31:48;;;;;;;3.22;2.17;;;;;;;;;;6246904;23;20000;-94
2023/11/24 04:34:14;;;;;;;5.57;2.78;;;;;;;;;;6265413;22;20016;-91
2023/11/24 04:36:40;;;;;;;6.30;2.50;;;;;;;;;;6255028;22;20012;-95
2023/11/24 04:39:07;;;;;;;3.67;2.33;;;;;;;;;;6247916;22;20421;-94
2023/11/24 04:41:37;;;;;;;6.20;2.63;;;;;;;;;;6248261;23;20000;-95
2023/11/24 04:44:13;;;;;;;3.97;2.10;;;;;;;;;;6245718;23;20004;-95
2023/11/24 04:46:48;;;;;;;3.58;2.25;;;;;;;;;;6220904;23;20000;-93
2023/11/24 04:49:39;;;;;;;5.05;2.63;;;;;;;;;;6225048;23;20005;-93
2023/11/24 04:52:07;;;;;;;4.00;2.80;;;;;;;;;;6249668;23;20079;-94
2023/11/24 04:54:38;;;;;;;3.22;2.15;;;;;;;;;;6220156;23;20012;-94
2023/11/24 04:57:13;;;;;;;3.95;2.47;;;;;;;;;;6220462;23;20010;-94
2023/11/24 04:59:43;;;;;;;3.38;2.03;;;;;;;;;;6220121;23;20091;-94
2023/11/24 05:02:12;;;;;;;3.17;2.03;;;;;;;;;;6222973;23;20000;-93
2023/11/24 05:04:47;;;;;;;3.97;2.75;;;;;;;;;;6215556;23;20012;-94
2023/11/24 05:07:18;;;;;;;4.03;2.20;;;;;;;;;;6233950;22;20024;-94
2023/11/24 05:09:59;;;;;;;2.70;2.10;;;;;;;;;;6287199;22;20052;-95
2023/11/24 05:12:25;;;;;;;4.05;2.33;;;;;;;;;;6278571;22;20007;-94
2023/11/24 05:15:21;;;;;;;;;;;;;;;;;;;;;
2023/11/24 05:18:01;;;;;;;;;;;;;;;;;;;;;
2023/11/24 05:20:33;;;;;;;4.28;2.25;;;;;;;;;;6249036;23;20024;-93
2023/11/24 05:22:59;;;;;;;4.35;2.65;;;;;;;;;;6220174;23;20066;-94
2023/11/24 05:25:28;;;;;;;3.58;2.42;;;;;;;;;;6220566;23;20000;-94
2023/11/24 05:27:54;;;;;;;3.80;2.60;;;;;;;;;;6220546;23;20016;-94
2023/11/24 05:30:26;;;;;;;4.40;2.60;;;;;;;;;;6221344;23;20378;-94
2023/11/24 05:32:54;;;;;;;4.57;2.75;;;;;;;;;;6220432;23;20016;-95
2023/11/24 05:35:20;;;;;;;4.05;2.53;;;;;;;;;;6222303;23;20040;-95
2023/11/24 05:37:49;;;;;;;3.40;2.33;;;;;;;;;;6220513;23;20054;-95
2023/11/24 05:40:23;;;;;;;6.32;2.45;;;;;;;;;;6246845;23;20464;-95
2023/11/24 05:43:10;;;;;;;4.00;2.55;;;;;;;;;;6220505;23;20096;-95
2023/11/24 05:45:43;;;;;;;3.67;2.08;;;;;;;;;;6247279;22;20000;-95
2023/11/24 05:51:25;;;;;;;1.60;0.88;;;;;;;;;;6248945;23;20119;-93
2023/11/24 05:53:55;;;;;;;1.20;0.60;;;;;;;;;;6274716;22;20012;-94
2023/11/24 05:56:30;;;;;;;2.35;0.82;;;;;;;;;;6250653;23;20004;-95
2023/11/24 05:59:11;;;;;;;1.80;0.90;;;;;;;;;;6275937;22;20427;-94
2023/11/24 06:01:38;;;;;;;1.70;0.80;;;;;;;;;;6281659;22;20000;-94
2023/11/24 06:04:07;;;;;;;2.15;0.85;;;;;;;;;;6281772;22;20332;-94
2023/11/24 06:09:40;;;;;;;;;;;;;;;;;;;;;
2023/11/24 15:44:48;;;;;;;4.70;2.00;;;;;;;;;;6220727;22;20046;-85
2023/11/24 15:52:29;;;;;;;2.47;0.98;;;;;;;;;;6242978;22;20031;-90
2023/11/24 16:06:34;;;;;;;;;;;;;;;;;;;;;
2023/11/24 16:09:34;;;;;;;3.00;1.50;;;;;;;;;;6202336;23;19993;-96
2023/11/24 16:18:36;;;;;;;2.15;1.08;;;;;;;;;;6054864;23;20018;-96
2023/11/24 16:21:27;;;;;;;3.25;1.23;;;;;;;;;;6058741;23;19991;-96
2023/11/24 16:24:18;;;;;;;2.45;1.10;;;;;;;;;;6203944;23;20012;-95
2023/11/24 16:33:34;;;;;;;13.13;2.97;;;;;;;;;;6297970;22;20118;-92
2023/11/24 16:36:05;;;;;;;8.90;2.30;;;;;;;;;;6241764;22;20023;-96
2023/11/24 16:38:37;;;;;;;6.78;2.35;;;;;;;;;;6266836;22;20056;-92
2023/11/24 16:43:45;;;;;;;4.53;1.35;;;;;;;;;;6286730;22;20024;-96
2023/11/24 16:46:21;;;;;;;3.20;1.35;;;;;;;;;;6267857;22;20059;-95
2023/11/24 16:51:50;;;;;;;3.05;1.10;;;;;;;;;;6252799;22;20039;-96
2023/11/24 16:54:26;;;;;;;3.92;1.60;;;;;;;;;;6278263;22;20019;-93
2023/11/24 17:00:33;;;;;;;2.45;1.40;;;;;;;;;;6249105;23;20011;-95
2023/11/24 17:18:06;;;;;;;4.75;1.30;;;;;;;;;;6282958;22;20013;-95
2023/11/24 17:23:50;;;;;;;4.10;1.55;;;;;;;;;;6287840;22;20035;-94
2023/11/24 17:26:17;;;;;;;3.35;1.70;;;;;;;;;;6199545;23;20012;-94
2023/11/24 17:42:41;;;;;;;2.75;1.27;;;;;;;;;;6268298;22;20024;-96
2023/11/24 17:45:39;;;;;;;;;;;;;;;;;;;;;
2023/11/24 17:48:49;;;;;;;2.47;1.50;;;;;;;;;;6021840;23;20012;-96
2023/11/24 17:55:23;;;;;;;4.07;1.52;;;;;;;;;;5998191;23;20024;-94
2023/11/24 17:57:56;;;;;;;2.80;1.58;;;;;;;;;;5895365;24;20032;-94
2023/11/24 18:00:46;;;;;;;3.90;1.50;;;;;;;;;;6187473;22;20023;-95
2023/11/24 18:05:51;;;;;;;2.30;1.38;;;;;;;;;;6252987;22;20024;-96
2023/11/24 18:11:31;;;;;;;3.33;1.40;;;;;;;;;;6294176;22;20047;-94
2023/11/24 18:14:21;;;;;;;7.27;2.03;;;;;;;;;;6195385;23;20009;-94
2023/11/24 18:16:50;;;;;;;4.05;2.00;;;;;;;;;;6199669;23;20076;-94
2023/11/24 18:19:19;;;;;;;3.88;2.10;;;;;;;;;;6195716;23;20008;-93
2023/11/24 18:21:48;;;;;;;4.93;1.83;;;;;;;;;;6196945;23;20008;-95
2023/11/24 18:24:35;;;;;;;2.88;1.50;;;;;;;;;;6206111;23;20009;-94
2023/11/24 18:32:45;;;;;;;2.05;0.90;;;;;;;;;;6263241;23;20020;-93
2023/11/24 18:41:55;;;;;;;3.70;1.40;;;;;;;;;;6191866;23;20005;-96
2023/11/24 18:44:27;;;;;;;3.53;1.50;;;;;;;;;;6164401;23;20011;-96
2023/11/24 18:46:54;;;;;;;3.58;1.42;;;;;;;;;;6257651;22;20078;-95
2023/11/24 18:49:23;;;;;;;3.95;1.90;;;;;;;;;;6255644;22;20050;-93
2023/11/24 18:51:53;;;;;;;3.08;1.52;;;;;;;;;;6253813;22;19999;-96
2023/11/24 18:54:51;;;;;;;2.33;1.35;;;;;;;;;;6257112;22;20012;-96
2023/11/24 18:57:21;;;;;;;2.65;1.58;;;;;;;;;;6164698;23;20063;-95
2023/11/24 19:00:04;;;;;;;1.92;1.10;;;;;;;;;;6142383;23;20106;-96
2023/11/24 19:08:33;;;;;;;1.45;0.95;;;;;;;;;;6162537;23;20454;-94
2023/11/24 19:11:12;;;;;;;2.80;1.40;;;;;;;;;;6144492;23;20006;-96
2023/11/24 19:13:55;;;;;;;2.35;1.40;;;;;;;;;;6141934;23;20098;-95
2023/11/24 19:16:45;;;;;;;2.28;1.15;;;;;;;;;;6138485;23;20005;-95
2023/11/24 19:22:40;;;;;;;2.30;0.93;;;;;;;;;;6125838;23;20017;-93
2023/11/24 19:25:37;;;;;;;2.78;1.08;;;;;;;;;;6134945;23;20107;-96
2023/11/24 19:37:21;;;;;;;3.22;1.08;;;;;;;;;;6131841;23;20130;-93
2023/11/24 19:39:50;;;;;;;1.63;0.90;;;;;;;;;;6226029;23;20054;-94
2023/11/24 19:42:43;;;;;;;;;;;;;;;;;;;;;
2023/11/24 19:45:22;;;;;;;3.35;1.13;;;;;;;;;;6240265;23;20027;-95
2023/11/24 19:47:49;;;;;;;1.73;1.00;;;;;;;;;;6233628;22;20026;-96
2023/11/24 19:56:46;;;;;;;1.98;1.13;;;;;;;;;;6102270;23;20006;-96
2023/11/24 19:59:30;;;;;;;2.50;1.20;;;;;;;;;;6204074;23;20015;-96
2023/11/24 20:05:38;;;;;;;2.30;1.13;;;;;;;;;;6206871;22;20086;-96
2023/11/24 20:11:27;;;;;;;3.17;1.08;;;;;;;;;;6256213;23;20038;-96
2023/11/24 20:13:57;;;;;;;1.38;0.80;;;;;;;;;;6267681;22;20035;-95
2023/11/24 20:17:05;;;;;;;1.83;0.98;;;;;;;;;;6271066;22;20039;-95
2023/11/24 20:22:23;;;;;;;2.38;1.10;;;;;;;;;;6264484;23;20007;-94
2023/11/24 20:35:57;;;;;;;3.42;1.05;;;;;;;;;;6205272;22;20019;-96
2023/11/24 20:38:24;;;;;;;2.03;1.10;;;;;;;;;;6209889;22;20008;-95
2023/11/24 20:43:30;;;;;;;2.15;0.98;;;;;;;;;;6262130;22;20012;-94
2023/11/24 20:49:24;;;;;;;4.00;1.77;;;;;;;;;;6273138;22;20000;-96
2023/11/24 20:51:59;;;;;;;3.53;1.52;;;;;;;;;;6094508;23;20019;-96
2023/11/24 20:54:27;;;;;;;9.63;3.08;;;;;;;;;;6244681;23;20009;-96
2023/11/24 20:57:30;;;;;;;;;;;;;;;;;;;;;
2023/11/24 21:03:41;;;;;;;2.65;1.35;;;;;;;;;;6228735;22;20113;-94
2023/11/24 21:17:29;;;;;;;1.70;1.10;;;;;;;;;;6281982;22;20007;-92
2023/11/24 21:26:25;;;;;;;4.07;1.38;;;;;;;;;;6151359;22;20083;-92
2023/11/24 21:28:54;;;;;;;6.55;1.30;;;;;;;;;;6271466;22;19992;-93
2023/11/24 21:35:04;;;;;;;4.40;1.38;;;;;;;;;;6216424;23;20069;-93
2023/11/24 21:37:36;;;;;;;4.10;1.23;;;;;;;;;;6192943;23;20012;-95
2023/11/24 21:40:26;;;;;;;7.30;2.33;;;;;;;;;;6238524;22;20004;-94
2023/11/24 21:43:08;;;;;;;3.97;1.52;;;;;;;;;;6256778;22;20007;-96
2023/11/24 21:51:27;;;;;;;5.25;1.83;;;;;;;;;;6189726;23;20044;-95
2023/11/24 22:00:52;;;;;;;4.32;1.73;;;;;;;;;;6156416;23;20012;-96
2023/11/24 22:06:33;;;;;;;2.08;1.30;;;;;;;;;;6283741;22;20103;-94
2023/11/24 22:12:18;;;;;;;2.25;1.13;;;;;;;;;;6294127;22;20026;-95
2023/11/24 22:14:57;;;;;;;3.50;1.20;;;;;;;;;;6209263;23;20036;-95
2023/11/24 22:23:28;;;;;;;3.08;1.55;;;;;;;;;;6131433;23;20061;-96
2023/11/24 22:29:38;;;;;;;5.78;1.60;;;;;;;;;;6042800;23;20022;-96
2023/11/24 22:32:34;;;;;;;5.00;1.50;;;;;;;;;;6047209;23;20105;-96
2023/11/24 22:35:03;;;;;;;3.60;1.13;;;;;;;;;;6069792;23;20018;-96
2023/11/24 22:40:31;;;;;;;4.40;1.30;;;;;;;;;;6188990;23;20024;-93
2023/11/24 22:46:04;;;;;;;3.63;1.20;;;;;;;;;;6160492;23;20113;-94
2023/11/24 22:48:47;;;;;;;2.75;1.25;;;;;;;;;;6134744;23;20010;-96
2023/11/24 22:58:01;;;;;;;2.33;1.00;;;;;;;;;;6042673;23;20045;-96
2023/11/24 23:00:39;;;;;;;2.05;1.20;;;;;;;;;;6064245;23;20092;-94
2023/11/24 23:03:14;;;;;;;3.58;1.10;;;;;;;;;;6033513;23;20007;-96
2023/11/24 23:05:40;;;;;;;3.72;1.00;;;;;;;;;;6055576;23;20010;-93
2023/11/24 23:08:31;;;;;;;7.43;1.23;;;;;;;;;;6091920;23;20098;-95
2023/11/24 23:13:54;;;;;;;6.70;1.10;;;;;;;;;;6205748;23;20100;-95
2023/11/24 23:16:31;;;;;;;;;;;;;;;;;;;;;
2023/11/24 23:18:59;;;;;;;5.10;1.27;;;;;;;;;;6220367;23;20032;-96
2023/11/24 23:21:37;;;;;;;2.90;0.90;;;;;;;;;;6219138;23;20004;-95
2023/11/24 23:27:26;;;;;;;2.45;1.15;;;;;;;;;;6219953;23;20036;-95
2023/11/24 23:33:43;;;;;;;4.15;1.00;;;;;;;;;;6041955;23;20071;-96
2023/11/24 23:39:34;;;;;;;2.83;0.90;;;;;;;;;;6277104;22;20038;-95
2023/11/24 23:45:09;;;;;;;4.18;0.80;;;;;;;;;;6289044;22;20087;-94
2023/11/24 23:48:10;;;;;;;;;;;;;;;;;;;;;
2023/11/24 23:54:12;;;;;;;4.57;1.48;;;;;;;;;;6193614;23;20027;-94
2023/11/24 23:56:49;;;;;;;2.28;0.98;;;;;;;;;;6171975;23;20001;-94
